Time;durP1;ratioP1;P1;durP2;ratioP2;P2;SDS_P1;SDS_P2;PMS_P1;PMS_P2;Temp;Humidity;BMP_temperature;BMP_pressure;BME280_temperature;BME280_humidity;BME280_pressure;Samples;Min_cycle;Max_cycle;Signal;HPM_P1;HPM_P2
2022/12/27 00:01:49;;;;;;;6.53;2.60;;;;;;;2.45;84.78;102100.00;5024470;28;20033;-77
2022/12/27 00:04:15;;;;;;;8.00;2.60;;;;;;;2.44;84.67;102098.25;5024215;28;21341;-79
2022/12/27 00:06:40;;;;;;;5.00;2.13;;;;;;;2.44;84.96;102103.41;5025203;28;20037;-77
2022/12/27 00:09:06;;;;;;;6.33;2.27;;;;;;;2.43;84.96;102105.13;5025880;28;20033;-77
2022/12/27 00:11:32;;;;;;;7.17;2.30;;;;;;;2.43;84.76;102106.78;5026685;28;20060;-77
2022/12/27 00:14:01;;;;;;;6.10;2.60;;;;;;;2.43;85.01;102104.22;5030310;28;20034;-81
2022/12/27 00:16:27;;;;;;;6.80;2.50;;;;;;;2.44;85.08;102118.81;5029812;28;20037;-77
2022/12/27 00:18:52;;;;;;;5.57;2.90;;;;;;;2.44;84.96;102116.25;5030941;28;20049;-76
2022/12/27 00:21:19;;;;;;;6.43;2.40;;;;;;;2.45;85.02;102119.69;5030294;28;20532;-77
2022/12/27 00:23:47;;;;;;;5.83;2.53;;;;;;;2.45;85.08;102119.69;5029801;28;20029;-77
2022/12/27 00:26:24;;;;;;;7.23;2.60;;;;;;;2.42;85.13;102118.78;5030430;28;20029;-77
2022/12/27 00:28:49;;;;;;;7.50;2.67;;;;;;;2.43;85.27;102110.25;5032287;28;20041;-77
2022/12/27 00:31:16;;;;;;;7.17;2.53;;;;;;;2.44;85.31;102123.94;5043673;28;20049;-77
2022/12/27 00:33:43;;;;;;;6.27;2.30;;;;;;;2.41;85.17;102121.28;5031960;28;20036;-77
2022/12/27 00:36:11;;;;;;;5.90;2.60;;;;;;;2.43;85.15;102127.34;5030370;28;20460;-77
2022/12/27 00:38:37;;;;;;;5.63;2.77;;;;;;;2.43;85.66;102122.22;5026084;28;20033;-76
2022/12/27 00:41:02;;;;;;;5.77;2.80;;;;;;;2.41;85.54;102123.84;5028458;28;20036;-77
2022/12/27 00:43:28;;;;;;;6.43;2.83;;;;;;;2.39;85.55;102136.66;5025299;28;20396;-77
2022/12/27 00:45:53;;;;;;;6.33;2.60;;;;;;;2.40;85.77;102128.13;5028113;28;20580;-77
2022/12/27 00:48:19;;;;;;;6.17;2.80;;;;;;;2.39;85.72;102138.38;5029186;28;20037;-77
2022/12/27 00:50:44;;;;;;;5.80;2.53;;;;;;;2.38;85.96;102141.78;5031892;28;20079;-77
2022/12/27 00:53:11;;;;;;;6.30;2.30;;;;;;;2.39;85.96;102138.38;5029773;28;20037;-76
2022/12/27 00:55:37;;;;;;;7.17;2.83;;;;;;;2.40;86.01;102142.66;5029086;28;20547;-76
2022/12/27 00:58:03;;;;;;;7.20;2.47;;;;;;;2.39;85.89;102149.50;5026360;28;20048;-76
2022/12/27 01:00:29;;;;;;;9.60;2.80;;;;;;;2.40;85.98;102147.78;5027951;28;20041;-77
2022/12/27 01:02:54;;;;;;;7.13;2.47;;;;;;;2.39;86.05;102146.94;5024874;28;20844;-77
2022/12/27 01:05:20;;;;;;;6.30;2.80;;;;;;;2.40;86.16;102142.66;5027952;28;20033;-77
2022/12/27 01:07:46;;;;;;;7.10;2.50;;;;;;;2.39;86.09;102144.38;5028190;28;20056;-77
2022/12/27 01:10:11;;;;;;;6.97;2.60;;;;;;;2.39;86.50;102146.94;5029235;28;20400;-76
2022/12/27 01:12:37;;;;;;;7.07;2.73;;;;;;;2.40;86.42;102142.66;5028467;28;20064;-77
2022/12/27 01:15:04;;;;;;;5.43;2.67;;;;;;;2.40;86.36;102150.38;5029148;28;20030;-76
2022/12/27 01:17:29;;;;;;;6.20;2.60;;;;;;;2.39;86.18;102146.09;5030293;28;20033;-77
2022/12/27 01:19:54;;;;;;;6.53;2.50;;;;;;;2.39;86.54;102146.94;5027801;28;20099;-77
2022/12/27 01:22:20;;;;;;;7.33;3.00;;;;;;;2.38;86.63;102149.47;5027253;28;20120;-76
2022/12/27 01:24:45;;;;;;;5.40;2.17;;;;;;;2.37;86.45;102147.72;5026486;28;20392;-76
2022/12/27 01:27:11;;;;;;;6.23;2.30;;;;;;;2.35;86.84;102150.22;5027101;28;20067;-77
2022/12/27 01:29:36;;;;;;;6.80;2.60;;;;;;;2.36;86.73;102156.25;5028097;28;20099;-77
2022/12/27 01:32:01;;;;;;;8.47;2.67;;;;;;;2.34;86.50;102157.91;5029310;28;20030;-77
2022/12/27 01:34:27;;;;;;;5.23;2.60;;;;;;;2.35;86.63;102162.22;5025384;28;20476;-76
2022/12/27 01:36:52;;;;;;;7.23;2.53;;;;;;;2.34;86.62;102163.03;5029131;28;20120;-76
2022/12/27 01:39:17;;;;;;;7.33;2.50;;;;;;;2.34;86.78;102168.19;5026958;28;20068;-76
2022/12/27 01:44:57;;;;;;;8.40;2.63;;;;;;;2.33;87.02;102177.56;5028759;28;20542;-76
2022/12/27 01:47:33;;;;;;;6.17;2.77;;;;;;;2.34;86.80;102184.44;5025273;28;20037;-76
2022/12/27 01:50:11;;;;;;;6.87;2.40;;;;;;;2.33;87.14;102182.69;5025884;28;20396;-77
2022/12/27 01:52:47;;;;;;;5.80;2.50;;;;;;;2.32;87.33;102182.66;5028748;28;20033;-76
2022/12/27 01:55:47;;;;;;;6.47;2.73;;;;;;;2.33;87.04;102189.56;5028591;28;20053;-76
2022/12/27 01:58:27;;;;;;;4.67;2.20;;;;;;;2.33;87.02;102192.13;5029426;28;20036;-76
2022/12/27 02:00:52;;;;;;;10.10;2.80;;;;;;;2.32;87.54;102185.22;5028476;28;20102;-77
2022/12/27 02:03:28;;;;;;;6.93;2.40;;;;;;;2.32;87.69;102195.50;5026402;28;20475;-76
2022/12/27 02:05:54;;;;;;;6.90;2.20;;;;;;;2.31;87.76;102194.63;5025682;28;20354;-77
2022/12/27 02:08:40;;;;;;;9.00;2.77;;;;;;;2.34;87.98;102196.44;5024122;28;20032;-76
2022/12/27 02:11:07;;;;;;;7.10;2.50;;;;;;;2.34;88.00;102197.28;5025683;28;20496;-77
2022/12/27 02:13:36;;;;;;;8.07;2.50;;;;;;;2.34;88.45;102206.69;5027215;28;20021;-76
2022/12/27 02:16:16;;;;;;;9.33;2.33;;;;;;;2.35;88.11;102203.31;5025777;28;20096;-77
2022/12/27 02:18:42;;;;;;;8.03;2.10;;;;;;;2.36;88.08;102210.19;5027263;28;20400;-76
2022/12/27 02:21:35;;;;;;;5.23;2.00;;;;;;;2.36;88.40;102205.06;5026305;28;20519;-76
2022/12/27 02:24:38;;;;;;;4.87;1.90;;;;;;;2.34;88.30;102205.00;5030271;28;20053;-76
2022/12/27 02:27:31;;;;;;;4.88;2.42;;;;;;;2.35;88.21;102206.72;5028729;28;20039;-76
2022/12/27 02:30:01;;;;;;;6.80;2.00;;;;;;;2.38;88.24;102216.25;5028791;28;20061;-76
2022/12/27 02:32:42;;;;;;;7.37;2.60;;;;;;;2.36;88.63;102199.91;5027721;28;20028;-76
2022/12/27 02:35:17;;;;;;;5.07;2.10;;;;;;;2.39;88.55;102208.59;5027550;28;20075;-76
2022/12/27 02:38:18;;;;;;;5.67;1.90;;;;;;;2.40;88.60;102219.72;5028677;28;20280;-77
2022/12/27 02:55:28;;;;;;;7.33;2.30;;;;;;;2.42;89.04;102218.94;5024031;28;20056;-77
2022/12/27 02:58:08;;;;;;;9.07;2.30;;;;;;;2.42;89.39;102223.19;5025891;28;20025;-76
2022/12/27 03:04:00;;;;;;;6.70;1.87;;;;;;;2.41;89.46;102216.31;5026072;28;20044;-77
2022/12/27 03:06:40;;;;;;;6.65;2.00;;;;;;;2.40;89.27;102209.44;5025804;28;20112;-76
2022/12/27 03:18:05;;;;;;;3.90;1.63;;;;;;;2.42;90.09;102212.94;5026317;28;20051;-77
2022/12/27 03:26:04;;;;;;;6.23;1.93;;;;;;;2.46;90.64;102206.22;5025238;28;20044;-77
2022/12/27 03:39:47;;;;;;;4.83;1.60;;;;;;;2.48;90.43;102228.53;5026569;28;20052;-76
2022/12/27 03:45:06;;;;;;;5.80;1.80;;;;;;;2.47;90.82;102237.06;5025778;28;20121;-76
2022/12/27 03:47:43;;;;;;;6.03;2.00;;;;;;;2.47;90.78;102231.06;5027469;28;20112;-77
2022/12/27 03:50:15;;;;;;;5.37;1.70;;;;;;;2.47;90.94;102241.34;5024728;28;20113;-77
2022/12/27 03:52:47;;;;;;;5.60;1.53;;;;;;;2.48;90.69;102251.66;5024888;28;20444;-77
2022/12/27 03:55:13;;;;;;;4.50;1.70;;;;;;;2.50;91.00;102260.28;5024704;28;20173;-77
2022/12/27 03:57:39;;;;;;;4.50;1.40;;;;;;;2.55;91.34;102271.59;5025931;28;20483;-77
2022/12/27 04:00:05;;;;;;;4.13;1.67;;;;;;;2.62;91.05;102261.47;5025417;28;20030;-77
2022/12/27 04:02:31;;;;;;;7.43;2.00;;;;;;;2.68;90.92;102261.66;5024646;28;20034;-76
2022/12/27 04:04:56;;;;;;;8.97;2.33;;;;;;;2.68;91.14;102256.53;5027369;28;20414;-77
2022/12/27 04:07:21;;;;;;;6.37;1.93;;;;;;;2.66;91.08;102258.19;5029959;28;20040;-77
2022/12/27 04:37:06;;;;;;;5.80;1.80;;;;;;;2.52;91.44;102256.06;5030623;28;20163;-76
2022/12/27 04:39:32;;;;;;;4.93;1.70;;;;;;;2.51;91.85;102259.47;5028578;28;20025;-77
2022/12/27 04:55:28;;;;;;;5.17;1.80;;;;;;;2.48;92.21;102276.44;5027863;28;20052;-76
2022/12/27 04:57:54;;;;;;;4.23;1.50;;;;;;;2.49;92.42;102271.38;5026836;28;20026;-76
2022/12/27 05:03:15;;;;;;;6.67;1.90;;;;;;;2.56;92.36;102269.88;5027823;28;20040;-77
2022/12/27 05:05:42;;;;;;;6.97;2.10;;;;;;;2.63;92.14;102268.34;5027248;28;20468;-76
2022/12/27 05:16:20;;;;;;;5.57;1.93;;;;;;;2.71;92.20;102292.59;5029879;28;20126;-76
2022/12/27 05:18:45;;;;;;;8.30;2.13;;;;;;;2.69;92.05;102294.25;5030331;28;20049;-76
2022/12/27 05:21:10;;;;;;;6.10;1.90;;;;;;;2.68;91.73;102287.38;5032750;28;20476;-76
2022/12/27 05:26:25;;;;;;;7.20;2.03;;;;;;;2.65;92.00;102292.41;5029500;28;20031;-76
2022/12/27 05:28:53;;;;;;;7.05;2.47;;;;;;;2.63;92.08;102299.19;5032419;28;20087;-76
2022/12/27 05:31:19;;;;;;;6.10;1.90;;;;;;;2.61;92.44;102313.69;5032801;28;21637;-76
2022/12/27 05:33:44;;;;;;;4.37;2.20;;;;;;;2.61;92.27;102296.59;5026487;28;20026;-76
2022/12/27 05:36:10;;;;;;;6.23;2.40;;;;;;;2.58;92.23;102297.34;5032061;28;20029;-77
2022/12/27 05:38:36;;;;;;;4.87;1.73;;;;;;;2.56;92.42;102287.84;5032582;28;20038;-76
2022/12/27 05:41:01;;;;;;;6.67;1.50;;;;;;;2.54;92.39;102310.94;5031169;28;20044;-77
2022/12/27 05:43:28;;;;;;;4.93;1.57;;;;;;;2.57;92.53;102311.00;5030574;28;20481;-76
2022/12/27 05:45:54;;;;;;;8.27;2.00;;;;;;;2.57;92.71;102313.56;5030648;28;20101;-76
2022/12/27 05:48:21;;;;;;;7.60;1.90;;;;;;;2.58;92.61;102310.19;5031365;28;20033;-76
2022/12/27 05:50:46;;;;;;;4.77;1.53;;;;;;;2.58;92.49;102315.31;5031309;28;20037;-76
2022/12/27 05:53:12;;;;;;;3.83;1.50;;;;;;;2.57;92.39;102316.16;5033703;28;20076;-76
2022/12/27 05:55:37;;;;;;;6.70;1.93;;;;;;;2.57;92.59;102328.13;5033393;28;20040;-76
2022/12/27 05:58:03;;;;;;;4.20;1.50;;;;;;;2.57;92.44;102331.56;5030131;28;20396;-76
2022/12/27 06:00:28;;;;;;;4.73;1.60;;;;;;;2.56;92.54;102329.81;5031124;28;20100;-76
2022/12/27 06:02:53;;;;;;;6.50;1.97;;;;;;;2.60;92.30;102335.06;5030914;28;20033;-77
2022/12/27 06:05:19;;;;;;;5.07;2.10;;;;;;;2.58;92.84;102330.75;5031819;28;20493;-77
2022/12/27 06:07:44;;;;;;;6.20;1.90;;;;;;;2.64;92.86;102334.34;5032039;28;20064;-77
2022/12/27 06:10:10;;;;;;;5.50;1.70;;;;;;;2.67;92.79;102337.88;5030053;28;20037;-77
2022/12/27 06:12:36;;;;;;;5.27;1.50;;;;;;;2.72;92.72;102332.91;5031184;28;20048;-76
2022/12/27 06:15:01;;;;;;;5.90;1.83;;;;;;;2.76;93.11;102337.28;5030915;28;20022;-76
2022/12/27 06:17:27;;;;;;;6.03;1.80;;;;;;;2.81;93.48;102340.00;5028755;28;20029;-77
2022/12/27 06:19:52;;;;;;;6.37;1.60;;;;;;;2.84;93.13;102340.97;5029382;28;20397;-76
2022/12/27 06:22:17;;;;;;;6.07;2.20;;;;;;;2.88;93.43;102337.69;5031760;28;20041;-76
2022/12/27 06:24:43;;;;;;;6.83;2.23;;;;;;;2.93;93.55;102336.91;5031072;28;20480;-76
2022/12/27 06:27:08;;;;;;;5.23;2.10;;;;;;;2.94;93.14;102339.56;5031944;28;20030;-76
2022/12/27 06:29:33;;;;;;;6.33;2.10;;;;;;;2.94;93.31;102328.38;5023260;28;20029;-77
2022/12/27 06:31:59;;;;;;;7.33;2.83;;;;;;;2.92;93.14;102337.75;5033167;28;20083;-77
2022/12/27 06:34:24;;;;;;;7.03;3.10;;;;;;;2.87;93.06;102325.66;5031333;28;20033;-76
2022/12/27 06:36:50;;;;;;;8.93;2.97;;;;;;;2.83;93.10;102323.81;5031119;28;20021;-77
2022/12/27 06:39:19;;;;;;;7.77;2.60;;;;;;;2.79;93.02;102327.09;5032541;28;20461;-76
2022/12/27 06:41:44;;;;;;;8.43;2.80;;;;;;;2.74;93.04;102331.22;5031953;28;20400;-76
2022/12/27 06:44:10;;;;;;;7.63;2.20;;;;;;;2.69;93.37;102336.22;5027939;28;20036;-76
2022/12/27 06:46:35;;;;;;;8.73;2.20;;;;;;;2.68;92.67;102347.31;5028082;28;20099;-76
2022/12/27 06:49:01;;;;;;;8.47;2.40;;;;;;;2.61;93.04;102352.22;5030340;28;20033;-76
2022/12/27 06:51:26;;;;;;;5.97;2.20;;;;;;;2.54;93.41;102354.63;5031199;28;20029;-77
2022/12/27 06:53:51;;;;;;;5.87;1.97;;;;;;;2.52;93.17;102348.56;5029283;28;20040;-76
2022/12/27 06:56:19;;;;;;;3.57;1.60;;;;;;;2.49;93.31;102352.69;5029034;28;20061;-76
2022/12/27 06:58:46;;;;;;;3.63;1.60;;;;;;;2.44;93.49;102360.25;5027056;28;20040;-76
2022/12/27 07:01:17;;;;;;;6.47;1.90;;;;;;;2.43;93.74;102359.41;5028199;28;20362;-76
2022/12/27 07:03:46;;;;;;;6.32;2.20;;;;;;;2.39;93.62;102354.13;5029761;28;20473;-76
2022/12/27 07:06:12;;;;;;;7.73;2.30;;;;;;;2.37;93.67;102359.19;5032676;28;20049;-76
2022/12/27 07:08:37;;;;;;;3.63;2.00;;;;;;;2.34;93.77;102356.50;5031818;28;20433;-77
2022/12/27 07:11:05;;;;;;;4.60;1.90;;;;;;;2.33;93.76;102356.47;5031017;28;21597;-76
2022/12/27 07:13:52;;;;;;;6.90;1.87;;;;;;;2.31;93.46;102363.25;5030815;28;20025;-76
2022/12/27 07:16:20;;;;;;;6.40;2.07;;;;;;;2.27;93.56;102360.59;5029415;28;20454;-76
2022/12/27 07:18:46;;;;;;;4.53;1.90;;;;;;;2.25;93.55;102364.78;5017677;28;20076;-76
2022/12/27 07:21:14;;;;;;;5.47;1.90;;;;;;;2.21;93.65;102362.97;5031604;28;20057;-76
2022/12/27 07:23:39;;;;;;;4.97;1.70;;;;;;;2.18;93.56;102362.84;5030526;28;20088;-76
2022/12/27 07:26:10;;;;;;;4.13;1.90;;;;;;;2.17;93.68;102373.94;5030641;28;20128;-76
2022/12/27 07:28:36;;;;;;;9.00;2.33;;;;;;;2.15;93.67;102374.69;5030199;28;20025;-76
2022/12/27 07:31:10;;;;;;;8.60;2.53;;;;;;;2.14;93.83;102386.66;5028863;28;20036;-76
2022/12/27 07:33:37;;;;;;;8.03;2.50;;;;;;;2.11;93.91;102376.28;5029821;28;20017;-76
2022/12/27 07:36:04;;;;;;;5.67;2.30;;;;;;;2.09;94.06;102389.09;5032079;28;20017;-76
2022/12/27 07:38:29;;;;;;;5.43;1.90;;;;;;;2.08;93.87;102392.47;5032421;28;20108;-76
2022/12/27 07:40:58;;;;;;;6.47;2.13;;;;;;;2.08;94.06;102376.19;5034006;28;20049;-76
2022/12/27 07:43:24;;;;;;;5.90;1.87;;;;;;;2.06;94.26;102393.22;5034048;28;20048;-76
2022/12/27 07:45:49;;;;;;;5.77;1.80;;;;;;;2.06;94.16;102386.41;5034456;28;20048;-76
2022/12/27 07:48:14;;;;;;;5.67;2.03;;;;;;;2.08;94.18;102386.44;5033090;28;20032;-76
2022/12/27 07:50:39;;;;;;;4.50;1.93;;;;;;;2.07;94.62;102384.69;5034900;28;20041;-76
2022/12/27 07:53:04;;;;;;;6.77;2.20;;;;;;;2.08;94.30;102392.47;5034175;28;20469;-76
2022/12/27 07:55:30;;;;;;;8.23;3.33;;;;;;;2.08;94.06;102391.59;5033855;28;20033;-76
2022/12/27 07:57:56;;;;;;;6.97;2.30;;;;;;;2.08;94.44;102387.34;5032981;28;20021;-76
2022/12/27 08:00:21;;;;;;;6.60;2.10;;;;;;;2.09;94.18;102393.34;5033398;28;20331;-76
2022/12/27 08:02:47;;;;;;;5.50;1.87;;;;;;;2.09;94.51;102399.34;5032330;28;20093;-76
2022/12/27 08:05:12;;;;;;;5.37;2.10;;;;;;;2.09;94.49;102399.34;5033651;28;20026;-76
2022/12/27 08:07:38;;;;;;;5.60;2.20;;;;;;;2.09;94.54;102398.47;5033928;28;20037;-76
2022/12/27 08:10:04;;;;;;;5.20;2.00;;;;;;;2.09;94.55;102404.50;5033360;28;20112;-76
2022/12/27 08:12:29;;;;;;;5.40;2.00;;;;;;;2.12;94.49;102409.75;5032382;28;20118;-76
2022/12/27 08:14:55;;;;;;;8.00;2.10;;;;;;;2.13;94.63;102413.16;5033609;28;20018;-76
2022/12/27 08:17:24;;;;;;;6.63;2.10;;;;;;;2.16;94.59;102420.97;5034358;28;20107;-77
2022/12/27 08:19:54;;;;;;;7.10;2.10;;;;;;;2.17;94.81;102422.72;5031981;28;20459;-76
2022/12/27 08:22:20;;;;;;;4.97;2.00;;;;;;;2.20;94.62;102427.97;5035509;28;20087;-76
2022/12/27 08:24:45;;;;;;;8.10;2.20;;;;;;;2.22;94.82;102418.59;5034308;28;20108;-76
2022/12/27 08:27:11;;;;;;;6.33;2.20;;;;;;;2.25;94.64;102429.00;5034544;28;20112;-76
2022/12/27 08:29:36;;;;;;;7.17;2.50;;;;;;;2.30;94.83;102425.72;5034077;28;20029;-76
2022/12/27 08:32:02;;;;;;;7.50;2.20;;;;;;;2.30;94.81;102428.28;5034479;28;20061;-76
2022/12/27 08:34:28;;;;;;;8.13;2.40;;;;;;;2.31;95.01;102430.88;5035171;28;20052;-76
2022/12/27 08:36:53;;;;;;;6.03;2.03;;;;;;;2.33;94.82;102433.53;5034311;28;20441;-76
2022/12/27 08:39:19;;;;;;;4.47;1.80;;;;;;;2.36;94.89;102433.63;5032344;28;20041;-76
2022/12/27 08:41:44;;;;;;;6.13;2.60;;;;;;;2.37;94.61;102427.69;5033524;28;20480;-76
2022/12/27 08:44:10;;;;;;;4.93;2.40;;;;;;;2.39;95.14;102428.63;5034787;28;20358;-76
2022/12/27 08:46:36;;;;;;;4.37;2.27;;;;;;;2.41;94.67;102430.41;5033574;28;20032;-76
2022/12/27 08:49:02;;;;;;;5.93;2.27;;;;;;;2.43;95.01;102420.16;5033082;28;20021;-76
2022/12/27 08:51:28;;;;;;;7.30;2.03;;;;;;;2.46;95.01;102429.69;5033475;28;20017;-76
2022/12/27 08:53:53;;;;;;;5.20;2.07;;;;;;;2.49;95.16;102424.63;5035320;28;20029;-76
2022/12/27 08:56:18;;;;;;;5.47;2.20;;;;;;;2.51;95.03;102429.00;5034786;28;20030;-76
2022/12/27 08:58:43;;;;;;;5.10;2.30;;;;;;;2.54;95.08;102421.41;5027532;28;20100;-76
2022/12/27 09:01:09;;;;;;;7.20;2.70;;;;;;;2.56;95.03;102414.59;5034693;28;20052;-76
2022/12/27 09:03:35;;;;;;;4.63;2.17;;;;;;;2.58;95.02;102410.38;5032428;28;20029;-76
2022/12/27 09:06:15;;;;;;;7.67;2.20;;;;;;;2.63;95.00;102413.13;5032996;28;20095;-76
2022/12/27 09:08:42;;;;;;;6.27;2.50;;;;;;;2.66;95.03;102422.63;5031539;28;20029;-76
2022/12/27 09:11:11;;;;;;;8.10;2.60;;;;;;;2.69;95.03;102409.88;5029843;28;20116;-76
2022/12/27 09:13:37;;;;;;;6.77;2.70;;;;;;;2.71;94.75;102409.09;5024112;28;20021;-76
2022/12/27 09:16:11;;;;;;;7.47;2.60;;;;;;;2.73;94.98;102406.59;5028259;28;20022;-76
2022/12/27 09:18:37;;;;;;;11.40;3.67;;;;;;;2.78;94.95;102425.59;5026663;28;20091;-76
2022/12/27 09:21:07;;;;;;;5.43;2.43;;;;;;;2.81;95.40;102423.13;5024728;28;20420;-76
2022/12/27 09:23:33;;;;;;;4.53;2.50;;;;;;;2.84;95.20;102428.38;5027017;28;20053;-76
2022/12/27 09:26:06;;;;;;;7.50;2.57;;;;;;;2.88;95.22;102417.38;5028286;28;20029;-76
2022/12/27 09:28:31;;;;;;;4.30;2.43;;;;;;;2.94;94.81;102423.50;5024804;28;20064;-76
2022/12/27 09:30:57;;;;;;;6.47;2.53;;;;;;;2.98;94.88;102427.91;5027313;28;20049;-76
2022/12/27 09:33:22;;;;;;;7.90;2.90;;;;;;;3.01;94.90;102433.16;5026449;28;20084;-76
2022/12/27 09:35:47;;;;;;;5.30;2.40;;;;;;;3.04;95.30;102422.97;5029103;28;20515;-76
2022/12/27 09:38:12;;;;;;;5.87;2.50;;;;;;;3.06;95.52;102429.06;5030314;28;20079;-76
2022/12/27 09:40:38;;;;;;;7.50;2.37;;;;;;;3.10;95.15;102436.00;5032665;28;20032;-76
2022/12/27 09:43:08;;;;;;;4.80;2.47;;;;;;;3.15;95.16;102438.75;5032432;28;20040;-76
2022/12/27 09:45:44;;;;;;;6.60;2.73;;;;;;;3.18;95.16;102438.81;5029582;28;20063;-76
2022/12/27 09:48:37;;;;;;;4.53;2.20;;;;;;;3.23;94.86;102441.56;5030518;28;20037;-76
2022/12/27 09:51:11;;;;;;;6.30;2.37;;;;;;;3.25;94.95;102434.72;5029910;28;20092;-76
2022/12/27 09:53:45;;;;;;;4.60;2.00;;;;;;;3.29;95.08;102431.44;5019628;28;20105;-75
2022/12/27 09:56:13;;;;;;;9.03;2.40;;;;;;;3.31;95.31;102434.94;5027403;28;20029;-77
2022/12/27 09:58:57;;;;;;;7.47;2.97;;;;;;;3.36;95.24;102435.94;5023540;28;20090;-75
2022/12/27 10:01:30;;;;;;;7.17;2.40;;;;;;;3.40;95.01;102434.34;5026454;28;20029;-75
2022/12/27 10:03:55;;;;;;;5.87;2.40;;;;;;;3.44;95.09;102443.91;5026702;28;20029;-76
2022/12/27 10:06:48;;;;;;;6.13;2.53;;;;;;;3.50;95.24;102451.81;5024282;28;20048;-75
2022/12/27 10:09:38;;;;;;;6.93;2.53;;;;;;;3.55;95.23;102445.06;5024779;28;20489;-76
2022/12/27 10:12:35;;;;;;;7.70;2.30;;;;;;;3.60;95.01;102440.06;5025765;28;20021;-76
2022/12/27 10:15:12;;;;;;;6.03;2.57;;;;;;;3.68;94.75;102446.31;5020559;28;20041;-75
2022/12/27 10:18:12;;;;;;;5.00;2.17;;;;;;;3.73;94.64;102437.03;5026380;28;20112;-76
2022/12/27 10:20:57;;;;;;;6.87;2.30;;;;;;;3.78;94.89;102438.00;5024255;28;20049;-76
2022/12/27 10:23:27;;;;;;;7.70;2.30;;;;;;;3.84;94.83;102441.59;5024155;28;20116;-76
2022/12/27 10:25:58;;;;;;;5.33;2.30;;;;;;;3.87;94.54;102445.13;5024677;28;20034;-75
2022/12/27 10:28:28;;;;;;;;;;;;;;;3.92;94.46;102433.25;5025849;28;20145;-76
2022/12/27 10:30:54;;;;;;;4.77;2.10;;;;;;;3.96;94.18;102447.06;5021693;28;20718;-76
2022/12/27 10:33:24;;;;;;;10.03;2.47;;;;;;;4.00;94.37;102442.91;5022218;28;20053;-76
2022/12/27 10:35:50;;;;;;;7.30;2.10;;;;;;;4.02;94.23;102447.25;5023058;28;20033;-75
2022/12/27 10:38:15;;;;;;;4.70;2.10;;;;;;;4.05;94.27;102447.34;5022384;28;20036;-76
2022/12/27 10:41:06;;;;;;;5.20;2.13;;;;;;;4.10;94.17;102440.59;5021056;28;20824;-76
2022/12/27 10:43:37;;;;;;;6.10;2.38;;;;;;;4.16;94.16;102449.31;5018724;28;20744;-76
2022/12/27 10:46:15;;;;;;;6.20;2.30;;;;;;;4.20;94.12;102456.31;5022133;28;20036;-76
2022/12/27 10:48:51;;;;;;;4.50;2.40;;;;;;;4.24;93.74;102458.16;5023041;28;20079;-76
2022/12/27 10:51:17;;;;;;;6.27;2.60;;;;;;;4.28;93.93;102452.22;5021937;28;20053;-75
2022/12/27 10:53:45;;;;;;;7.57;2.60;;;;;;;4.34;93.83;102449.81;5023470;28;20022;-75
2022/12/27 10:56:34;;;;;;;5.77;2.47;;;;;;;4.38;93.60;102446.50;5021644;28;20025;-76
2022/12/27 10:59:20;;;;;;;6.50;2.30;;;;;;;4.45;93.46;102454.38;5022780;28;20026;-76
2022/12/27 11:01:49;;;;;;;8.00;2.42;;;;;;;4.51;93.86;102449.38;5023834;28;20029;-76
2022/12/27 11:04:17;;;;;;;6.73;2.33;;;;;;;4.56;93.11;102440.06;5024434;28;20025;-76
2022/12/27 11:06:45;;;;;;;5.03;2.23;;;;;;;4.60;93.31;102441.91;5026746;28;20031;-76
2022/12/27 11:09:25;;;;;;;6.80;2.37;;;;;;;4.62;93.06;102439.34;5026375;28;20025;-76
2022/12/27 11:11:51;;;;;;;7.90;2.53;;;;;;;4.62;92.53;102431.63;5023851;28;20025;-77
2022/12/27 11:14:19;;;;;;;5.67;2.47;;;;;;;4.62;92.64;102427.31;5026281;28;20524;-77
2022/12/27 11:16:46;;;;;;;7.93;2.43;;;;;;;4.60;92.33;102417.81;5030287;28;20064;-77
2022/12/27 11:19:26;;;;;;;4.73;2.37;;;;;;;4.61;92.20;102428.16;5030664;28;20120;-76
2022/12/27 11:21:53;;;;;;;6.37;2.20;;;;;;;4.62;92.22;102432.47;5030543;28;20033;-76
2022/12/27 11:24:21;;;;;;;7.10;2.45;;;;;;;4.62;92.19;102419.59;5030439;28;20033;-76
2022/12/27 11:26:53;;;;;;;6.07;2.10;;;;;;;4.64;92.13;102423.06;5030538;28;20032;-76
2022/12/27 11:29:22;;;;;;;7.15;2.35;;;;;;;4.66;92.38;102425.72;5030090;28;20384;-76
2022/12/27 11:31:49;;;;;;;5.85;2.30;;;;;;;4.67;92.24;102430.03;5029590;28;20876;-75
2022/12/27 11:34:26;;;;;;;6.15;2.25;;;;;;;4.67;92.46;102425.72;5029869;28;20021;-75
2022/12/27 11:36:54;;;;;;;6.47;2.33;;;;;;;4.69;91.85;102425.78;5028412;28;20029;-75
2022/12/27 11:39:50;;;;;;;7.03;2.53;;;;;;;4.69;91.99;102421.50;5028192;28;20029;-76
2022/12/27 11:42:37;;;;;;;5.97;2.25;;;;;;;4.70;92.05;102423.22;5027020;28;20030;-76
2022/12/27 11:45:17;;;;;;;5.77;2.30;;;;;;;4.73;92.09;102417.28;5025952;28;20043;-76
2022/12/27 11:47:53;;;;;;;5.23;2.30;;;;;;;4.74;92.15;102420.75;5028484;28;20021;-77
2022/12/27 11:50:33;;;;;;;4.60;1.98;;;;;;;4.73;92.20;102411.25;5029591;28;20040;-77
2022/12/27 11:53:04;;;;;;;9.43;2.30;;;;;;;4.73;92.06;102400.94;5030027;28;20774;-76
2022/12/27 11:55:45;;;;;;;6.00;2.08;;;;;;;4.72;92.21;102402.63;5027846;28;20032;-77
2022/12/27 11:58:25;;;;;;;5.28;2.20;;;;;;;4.73;92.20;102400.94;5027451;28;20053;-75
2022/12/27 12:01:06;;;;;;;7.45;2.20;;;;;;;4.71;91.93;102401.78;5027049;28;20105;-77
2022/12/27 12:03:54;;;;;;;4.77;2.23;;;;;;;4.70;91.91;102397.44;5027904;28;20028;-77
2022/12/27 12:06:49;;;;;;;6.40;2.08;;;;;;;4.75;92.08;102396.69;5027185;28;20040;-76
2022/12/27 12:09:58;;;;;;;6.47;2.03;;;;;;;4.76;92.46;102385.56;5024783;28;20025;-76
2022/12/27 12:12:48;;;;;;;4.47;2.15;;;;;;;4.73;91.77;102388.06;5025311;28;20029;-77
2022/12/27 12:15:51;;;;;;;3.57;2.03;;;;;;;4.73;91.86;102390.63;5025968;28;20028;-76
2022/12/27 12:18:37;;;;;;;5.32;2.28;;;;;;;4.71;91.79;102386.31;5004929;28;20045;-76
2022/12/27 12:21:35;;;;;;;5.00;2.20;;;;;;;4.69;91.90;102380.25;5022927;28;20494;-76
2022/12/27 12:24:40;;;;;;;6.40;2.00;;;;;;;4.70;92.19;102379.41;5025101;28;20041;-76
2022/12/27 12:27:37;;;;;;;3.97;2.07;;;;;;;4.73;91.86;102370.84;5024760;28;20045;-77
2022/12/27 12:30:21;;;;;;;7.22;2.30;;;;;;;4.73;92.00;102367.44;5026162;28;20131;-77
2022/12/27 12:32:52;;;;;;;6.80;2.03;;;;;;;4.74;91.41;102376.91;5022946;28;20041;-77
2022/12/27 12:35:31;;;;;;;5.45;1.98;;;;;;;4.76;91.71;102370.09;5019865;28;20087;-77
2022/12/27 12:38:11;;;;;;;5.70;1.87;;;;;;;4.79;92.05;102376.19;5022497;28;20098;-77
2022/12/27 12:41:09;;;;;;;5.50;1.75;;;;;;;4.84;91.82;102368.53;5024280;28;20083;-76
2022/12/27 12:43:58;;;;;;;6.30;2.00;;;;;;;4.90;92.25;102360.06;5024244;28;20131;-77
2022/12/27 12:46:35;;;;;;;4.25;1.70;;;;;;;4.97;91.93;102370.53;5025369;28;20021;-77
2022/12/27 12:49:18;;;;;;;5.18;2.05;;;;;;;4.99;91.46;102350.81;5024140;28;20029;-77
2022/12/27 12:51:51;;;;;;;4.47;2.00;;;;;;;5.03;91.37;102344.03;5024963;28;20057;-76
2022/12/27 12:54:30;;;;;;;5.47;1.77;;;;;;;5.07;91.42;102339.81;5026575;28;20029;-77
2022/12/27 12:57:14;;;;;;;8.93;2.03;;;;;;;5.11;91.13;102331.31;5027086;28;20044;-77
2022/12/27 13:00:05;;;;;;;5.97;2.17;;;;;;;5.23;91.17;102336.72;5023589;28;20072;-77
2022/12/27 13:02:34;;;;;;;5.67;2.00;;;;;;;5.39;90.85;102334.44;5022574;28;20029;-79
2022/12/27 13:05:18;;;;;;;5.88;1.83;;;;;;;5.51;90.67;102326.94;5023220;28;20068;-76
2022/12/27 13:08:12;;;;;;;4.13;1.88;;;;;;;5.62;90.52;102320.28;5024909;28;20057;-76
2022/12/27 13:11:15;;;;;;;5.93;2.30;;;;;;;5.75;90.67;102315.34;5026215;28;20495;-77
2022/12/27 13:13:53;;;;;;;5.80;2.05;;;;;;;5.83;90.21;102308.56;5026909;28;20530;-78
2022/12/27 13:16:26;;;;;;;4.32;1.70;;;;;;;5.86;89.75;102307.78;5027117;28;20037;-76
2022/12/27 13:19:10;;;;;;;5.07;1.67;;;;;;;5.82;89.27;102305.97;5029418;28;20053;-77
2022/12/27 13:21:52;;;;;;;5.68;1.80;;;;;;;5.77;89.23;102299.00;5028105;28;20376;-77
2022/12/27 13:24:37;;;;;;;3.85;1.60;;;;;;;5.69;89.10;102289.41;5025493;28;20064;-77
2022/12/27 13:27:24;;;;;;;5.32;1.95;;;;;;;5.60;89.39;102288.41;5026838;28;20036;-76
2022/12/27 13:29:55;;;;;;;7.20;1.75;;;;;;;5.54;89.17;102283.13;5026629;28;20779;-76
2022/12/27 13:32:27;;;;;;;3.90;1.60;;;;;;;5.52;89.55;102287.38;5025589;28;20033;-77
2022/12/27 13:35:17;;;;;;;4.38;1.80;;;;;;;5.52;89.52;102287.38;5025537;28;20598;-76
2022/12/27 13:38:00;;;;;;;4.72;1.83;;;;;;;5.56;89.34;102286.59;5024890;28;20044;-76
2022/12/27 13:41:01;;;;;;;8.48;1.80;;;;;;;5.65;89.61;102272.09;5024083;28;20037;-76